Aviation Digital Data Service (ADDS)

Output produced by METARs form (1807 UTC 18 February 2018)
found at http://www.aviationweather.gov/adds/metars/
 
METAR text: K2G4 181800Z AUTO 20003KT OVC018 M01/M04 A3029 RMK AO1
Conditions at: K2G4 (GARRETT CO , MD, US) observed 1800 UTC 18 February 2018
Temperature: -1.0°C (30°F)
Dewpoint: -4.0°C (25°F) [RH = 80%]
Pressure (altimeter): 30.29 inches Hg (1025.8 mb)
Winds: from the SSW (200 degrees) at 3 MPH (3 knots; 1.6 m/s)
Visibility: missing
Ceiling: 1800 feet AGL
Clouds: overcast cloud deck at 1800 feet AGL
Weather: automated observation with no human augmentation;
there may or may not be significant weather present at this time

METAR text: K2G4 181740Z AUTO 00000KT OVC016 M01/M05 A3030 RMK AO1
Conditions at: K2G4 (GARRETT CO , MD, US) observed 1740 UTC 18 February 2018
Temperature: -1.0°C (30°F)
Dewpoint: -5.0°C (23°F) [RH = 74%]
Pressure (altimeter): 30.30 inches Hg (1026.2 mb)
Winds: calm
Visibility: missing
Ceiling: 1600 feet AGL
Clouds: overcast cloud deck at 1600 feet AGL
Weather: automated observation with no human augmentation;
there may or may not be significant weather present at this time

METAR text: K2G4 181720Z AUTO 00000KT OVC014 M02/M04 A3030 RMK AO1
Conditions at: K2G4 (GARRETT CO , MD, US) observed 1720 UTC 18 February 2018
Temperature: -2.0°C (28°F)
Dewpoint: -4.0°C (25°F) [RH = 86%]
Pressure (altimeter): 30.30 inches Hg (1026.2 mb)
Winds: calm
Visibility: missing
Ceiling: 1400 feet AGL
Clouds: overcast cloud deck at 1400 feet AGL
Weather: automated observation with no human augmentation;
there may or may not be significant weather present at this time

METAR text: K2G4 181700Z AUTO 00000KT OVC014 M02/M04 A3030 RMK AO1
Conditions at: K2G4 (GARRETT CO , MD, US) observed 1700 UTC 18 February 2018
Temperature: -2.0°C (28°F)
Dewpoint: -4.0°C (25°F) [RH = 86%]
Pressure (altimeter): 30.30 inches Hg (1026.2 mb)
Winds: calm
Visibility: missing
Ceiling: 1400 feet AGL
Clouds: overcast cloud deck at 1400 feet AGL
Weather: automated observation with no human augmentation;
there may or may not be significant weather present at this time

METAR text: K2G4 181640Z AUTO 29003KT OVC016 M02/M04 A3029 RMK AO1
Conditions at: K2G4 (GARRETT CO , MD, US) observed 1640 UTC 18 February 2018
Temperature: -2.0°C (28°F)
Dewpoint: -4.0°C (25°F) [RH = 86%]
Pressure (altimeter): 30.29 inches Hg (1025.8 mb)
Winds: from the WNW (290 degrees) at 3 MPH (3 knots; 1.6 m/s)
Visibility: missing
Ceiling: 1600 feet AGL
Clouds: overcast cloud deck at 1600 feet AGL
Weather: automated observation with no human augmentation;
there may or may not be significant weather present at this time

METAR text: K2G4 181620Z AUTO 30005KT OVC014 M02/M04 A3029 RMK AO1
Conditions at: K2G4 (GARRETT CO , MD, US) observed 1620 UTC 18 February 2018
Temperature: -2.0°C (28°F)
Dewpoint: -4.0°C (25°F) [RH = 86%]
Pressure (altimeter): 30.29 inches Hg (1025.8 mb)
Winds: from the WNW (300 degrees) at 6 MPH (5 knots; 2.6 m/s)
Visibility: missing
Ceiling: 1400 feet AGL
Clouds: overcast cloud deck at 1400 feet AGL
Weather: automated observation with no human augmentation;
there may or may not be significant weather present at this time

METAR text: K2G4 181600Z AUTO 29003KT BKN010 OVC015 M02/M03 A3027 RMK AO1
Conditions at: K2G4 (GARRETT CO , MD, US) observed 1600 UTC 18 February 2018
Temperature: -2.0°C (28°F)
Dewpoint: -3.0°C (27°F) [RH = 93%]
Pressure (altimeter): 30.27 inches Hg (1025.1 mb)
Winds: from the WNW (290 degrees) at 3 MPH (3 knots; 1.6 m/s)
Visibility: missing
Ceiling: 1000 feet AGL
Clouds: broken clouds at 1000 feet AGL
overcast cloud deck at 1500 feet AGL
Weather: automated observation with no human augmentation;
there may or may not be significant weather present at this time

METAR text: K2G4 181540Z AUTO 27004KT BKN010 OVC015 M02/M03 A3027 RMK AO1
Conditions at: K2G4 (GARRETT CO , MD, US) observed 1540 UTC 18 February 2018
Temperature: -2.0°C (28°F)
Dewpoint: -3.0°C (27°F) [RH = 93%]
Pressure (altimeter): 30.27 inches Hg (1025.1 mb)
Winds: from the W (270 degrees) at 5 MPH (4 knots; 2.1 m/s)
Visibility: missing
Ceiling: 1000 feet AGL
Clouds: broken clouds at 1000 feet AGL
overcast cloud deck at 1500 feet AGL
Weather: automated observation with no human augmentation;
there may or may not be significant weather present at this time

METAR text: K2G4 181520Z AUTO 30005KT BKN009 OVC014 M02/M03 A3025 RMK AO1
Conditions at: K2G4 (GARRETT CO , MD, US) observed 1520 UTC 18 February 2018
Temperature: -2.0°C (28°F)
Dewpoint: -3.0°C (27°F) [RH = 93%]
Pressure (altimeter): 30.25 inches Hg (1024.5 mb)
Winds: from the WNW (300 degrees) at 6 MPH (5 knots; 2.6 m/s)
Visibility: missing
Ceiling: 900 feet AGL
Clouds: broken clouds at 900 feet AGL
overcast cloud deck at 1400 feet AGL
Weather: automated observation with no human augmentation;
there may or may not be significant weather present at this time

METAR text: K2G4 181500Z AUTO 30006KT M03/M03 A3025 RMK AO1
Conditions at: K2G4 (GARRETT CO , MD, US) observed 1500 UTC 18 February 2018
Temperature: -3.0°C (27°F)
Dewpoint: -3.0°C (27°F) [RH = 100%]
Pressure (altimeter): 30.25 inches Hg (1024.5 mb)
Winds: from the WNW (300 degrees) at 7 MPH (6 knots; 3.1 m/s)
Visibility: missing
Ceiling: unknown
Clouds: missing
Weather: automated observation with no human augmentation;
there may or may not be significant weather present at this time

METAR text: K2G4 181440Z AUTO 29006KT M02/M03 A3025 RMK AO1
Conditions at: K2G4 (GARRETT CO , MD, US) observed 1440 UTC 18 February 2018
Temperature: -2.0°C (28°F)
Dewpoint: -3.0°C (27°F) [RH = 93%]
Pressure (altimeter): 30.25 inches Hg (1024.5 mb)
Winds: from the WNW (290 degrees) at 7 MPH (6 knots; 3.1 m/s)
Visibility: missing
Ceiling: unknown
Clouds: missing
Weather: automated observation with no human augmentation;
there may or may not be significant weather present at this time

METAR text: K2G4 181420Z AUTO 30005KT BKN005 OVC008 M03/M03 A3024 RMK AO1
Conditions at: K2G4 (GARRETT CO , MD, US) observed 1420 UTC 18 February 2018
Temperature: -3.0°C (27°F)
Dewpoint: -3.0°C (27°F) [RH = 100%]
Pressure (altimeter): 30.24 inches Hg (1024.1 mb)
Winds: from the WNW (300 degrees) at 6 MPH (5 knots; 2.6 m/s)
Visibility: missing
Ceiling: 500 feet AGL
Clouds: broken clouds at 500 feet AGL
overcast cloud deck at 800 feet AGL
Weather: automated observation with no human augmentation;
there may or may not be significant weather present at this time

METAR text: K2G4 181400Z AUTO 30008G16KT 262V342 BKN005 OVC010 M03/M03 A3023 RMK AO1
Conditions at: K2G4 (GARRETT CO , MD, US) observed 1400 UTC 18 February 2018
Temperature: -3.0°C (27°F)
Dewpoint: -3.0°C (27°F) [RH = 100%]
Pressure (altimeter): 30.23 inches Hg (1023.8 mb)
Winds: from the WNW (300 degrees) at 9 MPH (8 knots; 4.2 m/s)
gusting to 18 MPH (16 knots; 8.3 m/s)
Visibility: missing
Ceiling: 500 feet AGL
Clouds: broken clouds at 500 feet AGL
overcast cloud deck at 1000 feet AGL
Weather: automated observation with no human augmentation;
there may or may not be significant weather present at this time

METAR text: K2G4 181340Z AUTO 30008G15KT 262V332 BKN005 OVC009 M03/M03 A3021 RMK AO1
Conditions at: K2G4 (GARRETT CO , MD, US) observed 1340 UTC 18 February 2018
Temperature: -3.0°C (27°F)
Dewpoint: -3.0°C (27°F) [RH = 100%]
Pressure (altimeter): 30.21 inches Hg (1023.1 mb)
Winds: from the WNW (300 degrees) at 9 MPH (8 knots; 4.2 m/s)
gusting to 17 MPH (15 knots; 7.8 m/s)
Visibility: missing
Ceiling: 500 feet AGL
Clouds: broken clouds at 500 feet AGL
overcast cloud deck at 900 feet AGL
Weather: automated observation with no human augmentation;
there may or may not be significant weather present at this time

METAR text: K2G4 181320Z AUTO 29009G19KT 252V312 OVC005 M03/M03 A3020 RMK AO1
Conditions at: K2G4 (GARRETT CO , MD, US) observed 1320 UTC 18 February 2018
Temperature: -3.0°C (27°F)
Dewpoint: -3.0°C (27°F) [RH = 100%]
Pressure (altimeter): 30.20 inches Hg (1022.8 mb)
Winds: from the WNW (290 degrees) at 10 MPH (9 knots; 4.7 m/s)
gusting to 22 MPH (19 knots; 9.9 m/s)
Visibility: missing
Ceiling: 500 feet AGL
Clouds: overcast cloud deck at 500 feet AGL
Weather: automated observation with no human augmentation;
there may or may not be significant weather present at this time

METAR text: K2G4 181300Z AUTO 30009G18KT 262V322 BKN003 OVC007 M03/M03 A3018 RMK AO1
Conditions at: K2G4 (GARRETT CO , MD, US) observed 1300 UTC 18 February 2018
Temperature: -3.0°C (27°F)
Dewpoint: -3.0°C (27°F) [RH = 100%]
Pressure (altimeter): 30.18 inches Hg (1022.1 mb)
Winds: from the WNW (300 degrees) at 10 MPH (9 knots; 4.7 m/s)
gusting to 21 MPH (18 knots; 9.4 m/s)
Visibility: missing
Ceiling: 300 feet AGL
Clouds: broken clouds at 300 feet AGL
overcast cloud deck at 700 feet AGL
Weather: automated observation with no human augmentation;
there may or may not be significant weather present at this time

METAR text: K2G4 181240Z AUTO 29011G20KT OVC003 M03/M03 A3017 RMK AO1
Conditions at: K2G4 (GARRETT CO , MD, US) observed 1240 UTC 18 February 2018
Temperature: -3.0°C (27°F)
Dewpoint: -3.0°C (27°F) [RH = 100%]
Pressure (altimeter): 30.17 inches Hg (1021.8 mb)
Winds: from the WNW (290 degrees) at 13 MPH (11 knots; 5.7 m/s)
gusting to 23 MPH (20 knots; 10.4 m/s)
Visibility: missing
Ceiling: 300 feet AGL
Clouds: overcast cloud deck at 300 feet AGL
Weather: automated observation with no human augmentation;
there may or may not be significant weather present at this time

METAR text: K2G4 181220Z AUTO 28013G21KT OVC003 M03/M03 A3015 RMK AO1
Conditions at: K2G4 (GARRETT CO , MD, US) observed 1220 UTC 18 February 2018
Temperature: -3.0°C (27°F)
Dewpoint: -3.0°C (27°F) [RH = 100%]
Pressure (altimeter): 30.15 inches Hg (1021.1 mb)
Winds: from the W (280 degrees) at 15 MPH (13 knots; 6.8 m/s)
gusting to 24 MPH (21 knots; 10.9 m/s)
Visibility: missing
Ceiling: 300 feet AGL
Clouds: overcast cloud deck at 300 feet AGL
Weather: automated observation with no human augmentation;
there may or may not be significant weather present at this time

METAR text: K2G4 181200Z AUTO 28013G19KT OVC003 M02/M02 A3016 RMK AO1
Conditions at: K2G4 (GARRETT CO , MD, US) observed 1200 UTC 18 February 2018
Temperature: -2.0°C (28°F)
Dewpoint: -2.0°C (28°F) [RH = 100%]
Pressure (altimeter): 30.16 inches Hg (1021.4 mb)
Winds: from the W (280 degrees) at 15 MPH (13 knots; 6.8 m/s)
gusting to 22 MPH (19 knots; 9.9 m/s)
Visibility: missing
Ceiling: 300 feet AGL
Clouds: overcast cloud deck at 300 feet AGL
Weather: automated observation with no human augmentation;
there may or may not be significant weather present at this time

METAR text: K2G4 181140Z AUTO 29011G19KT 262V332 OVC003 M02/M02 A3016 RMK AO1
Conditions at: K2G4 (GARRETT CO , MD, US) observed 1140 UTC 18 February 2018
Temperature: -2.0°C (28°F)
Dewpoint: -2.0°C (28°F) [RH = 100%]
Pressure (altimeter): 30.16 inches Hg (1021.4 mb)
Winds: from the WNW (290 degrees) at 13 MPH (11 knots; 5.7 m/s)
gusting to 22 MPH (19 knots; 9.9 m/s)
Visibility: missing
Ceiling: 300 feet AGL
Clouds: overcast cloud deck at 300 feet AGL
Weather: automated observation with no human augmentation;
there may or may not be significant weather present at this time

METAR text: K2G4 181120Z AUTO 28012G17KT OVC003 M02/M02 A3015 RMK AO1
Conditions at: K2G4 (GARRETT CO , MD, US) observed 1120 UTC 18 February 2018
Temperature: -2.0°C (28°F)
Dewpoint: -2.0°C (28°F) [RH = 100%]
Pressure (altimeter): 30.15 inches Hg (1021.1 mb)
Winds: from the W (280 degrees) at 14 MPH (12 knots; 6.2 m/s)
gusting to 20 MPH (17 knots; 8.8 m/s)
Visibility: missing
Ceiling: 300 feet AGL
Clouds: overcast cloud deck at 300 feet AGL
Weather: automated observation with no human augmentation;
there may or may not be significant weather present at this time

METAR text: K2G4 181100Z AUTO 27011G17KT 242V302 OVC003 M02/M02 A3014 RMK AO1
Conditions at: K2G4 (GARRETT CO , MD, US) observed 1100 UTC 18 February 2018
Temperature: -2.0°C (28°F)
Dewpoint: -2.0°C (28°F) [RH = 100%]
Pressure (altimeter): 30.14 inches Hg (1020.7 mb)
Winds: from the W (270 degrees) at 13 MPH (11 knots; 5.7 m/s)
gusting to 20 MPH (17 knots; 8.8 m/s)
Visibility: missing
Ceiling: 300 feet AGL
Clouds: overcast cloud deck at 300 feet AGL
Weather: automated observation with no human augmentation;
there may or may not be significant weather present at this time

METAR text: K2G4 181040Z AUTO 27010G18KT 242V332 OVC001 M02/M02 A3013 RMK AO1
Conditions at: K2G4 (GARRETT CO , MD, US) observed 1040 UTC 18 February 2018
Temperature: -2.0°C (28°F)
Dewpoint: -2.0°C (28°F) [RH = 100%]
Pressure (altimeter): 30.13 inches Hg (1020.4 mb)
Winds: from the W (270 degrees) at 12 MPH (10 knots; 5.2 m/s)
gusting to 21 MPH (18 knots; 9.4 m/s)
Visibility: missing
Ceiling: 100 feet AGL
Clouds: overcast cloud deck at 100 feet AGL
Weather: automated observation with no human augmentation;
there may or may not be significant weather present at this time

METAR text: K2G4 181020Z AUTO 29009G18KT 262V322 OVC001 M02/M02 A3012 RMK AO1
Conditions at: K2G4 (GARRETT CO , MD, US) observed 1020 UTC 18 February 2018
Temperature: -2.0°C (28°F)
Dewpoint: -2.0°C (28°F) [RH = 100%]
Pressure (altimeter): 30.12 inches Hg (1020.1 mb)
Winds: from the WNW (290 degrees) at 10 MPH (9 knots; 4.7 m/s)
gusting to 21 MPH (18 knots; 9.4 m/s)
Visibility: missing
Ceiling: 100 feet AGL
Clouds: overcast cloud deck at 100 feet AGL
Weather: automated observation with no human augmentation;
there may or may not be significant weather present at this time

METAR text: K2G4 181000Z AUTO 28010G22KT 262V322 OVC001 M02/M02 A3012 RMK AO1
Conditions at: K2G4 (GARRETT CO , MD, US) observed 1000 UTC 18 February 2018
Temperature: -2.0°C (28°F)
Dewpoint: -2.0°C (28°F) [RH = 100%]
Pressure (altimeter): 30.12 inches Hg (1020.1 mb)
Winds: from the W (280 degrees) at 12 MPH (10 knots; 5.2 m/s)
gusting to 25 MPH (22 knots; 11.4 m/s)
Visibility: missing
Ceiling: 100 feet AGL
Clouds: overcast cloud deck at 100 feet AGL
Weather: automated observation with no human augmentation;
there may or may not be significant weather present at this time

METAR text: K2G4 180940Z AUTO 28009G18KT OVC001 M02/M02 A3010 RMK AO1
Conditions at: K2G4 (GARRETT CO , MD, US) observed 0940 UTC 18 February 2018
Temperature: -2.0°C (28°F)
Dewpoint: -2.0°C (28°F) [RH = 100%]
Pressure (altimeter): 30.10 inches Hg (1019.4 mb)
Winds: from the W (280 degrees) at 10 MPH (9 knots; 4.7 m/s)
gusting to 21 MPH (18 knots; 9.4 m/s)
Visibility: missing
Ceiling: 100 feet AGL
Clouds: overcast cloud deck at 100 feet AGL
Weather: automated observation with no human augmentation;
there may or may not be significant weather present at this time

METAR text: K2G4 180920Z AUTO 27010G16KT OVC001 M02/M02 A3008 RMK AO1
Conditions at: K2G4 (GARRETT CO , MD, US) observed 0920 UTC 18 February 2018
Temperature: -2.0°C (28°F)
Dewpoint: -2.0°C (28°F) [RH = 100%]
Pressure (altimeter): 30.08 inches Hg (1018.7 mb)
Winds: from the W (270 degrees) at 12 MPH (10 knots; 5.2 m/s)
gusting to 18 MPH (16 knots; 8.3 m/s)
Visibility: missing
Ceiling: 100 feet AGL
Clouds: overcast cloud deck at 100 feet AGL
Weather: automated observation with no human augmentation;
there may or may not be significant weather present at this time

METAR text: K2G4 180900Z AUTO 28009G20KT 232V292 OVC001 M02/M02 A3007 RMK AO1
Conditions at: K2G4 (GARRETT CO , MD, US) observed 0900 UTC 18 February 2018
Temperature: -2.0°C (28°F)
Dewpoint: -2.0°C (28°F) [RH = 100%]
Pressure (altimeter): 30.07 inches Hg (1018.4 mb)
Winds: from the W (280 degrees) at 10 MPH (9 knots; 4.7 m/s)
gusting to 23 MPH (20 knots; 10.4 m/s)
Visibility: missing
Ceiling: 100 feet AGL
Clouds: overcast cloud deck at 100 feet AGL
Weather: automated observation with no human augmentation;
there may or may not be significant weather present at this time

METAR text: K2G4 180840Z AUTO 27012G19KT OVC001 M01/M01 A3005 RMK AO1
Conditions at: K2G4 (GARRETT CO , MD, US) observed 0840 UTC 18 February 2018
Temperature: -1.0°C (30°F)
Dewpoint: -1.0°C (30°F) [RH = 100%]
Pressure (altimeter): 30.05 inches Hg (1017.7 mb)
Winds: from the W (270 degrees) at 14 MPH (12 knots; 6.2 m/s)
gusting to 22 MPH (19 knots; 9.9 m/s)
Visibility: missing
Ceiling: 100 feet AGL
Clouds: overcast cloud deck at 100 feet AGL
Weather: automated observation with no human augmentation;
there may or may not be significant weather present at this time

METAR text: K2G4 180820Z AUTO 27011G19KT OVC001 M01/M01 A3003 RMK AO1
Conditions at: K2G4 (GARRETT CO , MD, US) observed 0820 UTC 18 February 2018
Temperature: -1.0°C (30°F)
Dewpoint: -1.0°C (30°F) [RH = 100%]
Pressure (altimeter): 30.03 inches Hg (1017.0 mb)
Winds: from the W (270 degrees) at 13 MPH (11 knots; 5.7 m/s)
gusting to 22 MPH (19 knots; 9.9 m/s)
Visibility: missing
Ceiling: 100 feet AGL
Clouds: overcast cloud deck at 100 feet AGL
Weather: automated observation with no human augmentation;
there may or may not be significant weather present at this time

METAR text: K2G4 180800Z AUTO 27011G20KT OVC001 M01/M01 A3002 RMK AO1
Conditions at: K2G4 (GARRETT CO , MD, US) observed 0800 UTC 18 February 2018
Temperature: -1.0°C (30°F)
Dewpoint: -1.0°C (30°F) [RH = 100%]
Pressure (altimeter): 30.02 inches Hg (1016.7 mb)
Winds: from the W (270 degrees) at 13 MPH (11 knots; 5.7 m/s)
gusting to 23 MPH (20 knots; 10.4 m/s)
Visibility: missing
Ceiling: 100 feet AGL
Clouds: overcast cloud deck at 100 feet AGL
Weather: automated observation with no human augmentation;
there may or may not be significant weather present at this time

METAR text: K2G4 180740Z AUTO 27008G19KT OVC001 M01/M01 A3000 RMK AO1
Conditions at: K2G4 (GARRETT CO , MD, US) observed 0740 UTC 18 February 2018
Temperature: -1.0°C (30°F)
Dewpoint: -1.0°C (30°F) [RH = 100%]
Pressure (altimeter): 30.00 inches Hg (1016.0 mb)
Winds: from the W (270 degrees) at 9 MPH (8 knots; 4.2 m/s)
gusting to 22 MPH (19 knots; 9.9 m/s)
Visibility: missing
Ceiling: 100 feet AGL
Clouds: overcast cloud deck at 100 feet AGL
Weather: automated observation with no human augmentation;
there may or may not be significant weather present at this time

METAR text: K2G4 180720Z AUTO 27012G18KT OVC001 M01/M01 A2999 RMK AO1
Conditions at: K2G4 (GARRETT CO , MD, US) observed 0720 UTC 18 February 2018
Temperature: -1.0°C (30°F)
Dewpoint: -1.0°C (30°F) [RH = 100%]
Pressure (altimeter): 29.99 inches Hg (1015.7 mb)
Winds: from the W (270 degrees) at 14 MPH (12 knots; 6.2 m/s)
gusting to 21 MPH (18 knots; 9.4 m/s)
Visibility: missing
Ceiling: 100 feet AGL
Clouds: overcast cloud deck at 100 feet AGL
Weather: automated observation with no human augmentation;
there may or may not be significant weather present at this time

METAR text: K2G4 180700Z AUTO 26011G20KT OVC001 M01/M01 A2997 RMK AO1
Conditions at: K2G4 (GARRETT CO , MD, US) observed 0700 UTC 18 February 2018
Temperature: -1.0°C (30°F)
Dewpoint: -1.0°C (30°F) [RH = 100%]
Pressure (altimeter): 29.97 inches Hg (1015.0 mb)
Winds: from the W (260 degrees) at 13 MPH (11 knots; 5.7 m/s)
gusting to 23 MPH (20 knots; 10.4 m/s)
Visibility: missing
Ceiling: 100 feet AGL
Clouds: overcast cloud deck at 100 feet AGL
Weather: automated observation with no human augmentation;
there may or may not be significant weather present at this time

METAR text: K2G4 180640Z AUTO 26011G22KT OVC001 M01/M01 A2996 RMK AO1
Conditions at: K2G4 (GARRETT CO , MD, US) observed 0640 UTC 18 February 2018
Temperature: -1.0°C (30°F)
Dewpoint: -1.0°C (30°F) [RH = 100%]
Pressure (altimeter): 29.96 inches Hg (1014.6 mb)
Winds: from the W (260 degrees) at 13 MPH (11 knots; 5.7 m/s)
gusting to 25 MPH (22 knots; 11.4 m/s)
Visibility: missing
Ceiling: 100 feet AGL
Clouds: overcast cloud deck at 100 feet AGL
Weather: automated observation with no human augmentation;
there may or may not be significant weather present at this time

METAR text: K2G4 180620Z AUTO 26011G20KT OVC001 M01/M01 A2995 RMK AO1
Conditions at: K2G4 (GARRETT CO , MD, US) observed 0620 UTC 18 February 2018
Temperature: -1.0°C (30°F)
Dewpoint: -1.0°C (30°F) [RH = 100%]
Pressure (altimeter): 29.95 inches Hg (1014.3 mb)
Winds: from the W (260 degrees) at 13 MPH (11 knots; 5.7 m/s)
gusting to 23 MPH (20 knots; 10.4 m/s)
Visibility: missing
Ceiling: 100 feet AGL
Clouds: overcast cloud deck at 100 feet AGL
Weather: automated observation with no human augmentation;
there may or may not be significant weather present at this time

METAR text: K2G4 180600Z AUTO 26009G18KT OVC001 M01/M01 A2994 RMK AO1
Conditions at: K2G4 (GARRETT CO , MD, US) observed 0600 UTC 18 February 2018
Temperature: -1.0°C (30°F)
Dewpoint: -1.0°C (30°F) [RH = 100%]
Pressure (altimeter): 29.94 inches Hg (1014.0 mb)
Winds: from the W (260 degrees) at 10 MPH (9 knots; 4.7 m/s)
gusting to 21 MPH (18 knots; 9.4 m/s)
Visibility: missing
Ceiling: 100 feet AGL
Clouds: overcast cloud deck at 100 feet AGL
Weather: automated observation with no human augmentation;
there may or may not be significant weather present at this time

METAR text: K2G4 180540Z AUTO 27007KT OVC001 M01/M01 A2994 RMK AO1
Conditions at: K2G4 (GARRETT CO , MD, US) observed 0540 UTC 18 February 2018
Temperature: -1.0°C (30°F)
Dewpoint: -1.0°C (30°F) [RH = 100%]
Pressure (altimeter): 29.94 inches Hg (1014.0 mb)
Winds: from the W (270 degrees) at 8 MPH (7 knots; 3.6 m/s)
Visibility: missing
Ceiling: 100 feet AGL
Clouds: overcast cloud deck at 100 feet AGL
Weather: automated observation with no human augmentation;
there may or may not be significant weather present at this time

METAR text: K2G4 180520Z AUTO 27008G14KT OVC001 M01/M01 A2993 RMK AO1
Conditions at: K2G4 (GARRETT CO , MD, US) observed 0520 UTC 18 February 2018
Temperature: -1.0°C (30°F)
Dewpoint: -1.0°C (30°F) [RH = 100%]
Pressure (altimeter): 29.93 inches Hg (1013.6 mb)
Winds: from the W (270 degrees) at 9 MPH (8 knots; 4.2 m/s)
gusting to 16 MPH (14 knots; 7.3 m/s)
Visibility: missing
Ceiling: 100 feet AGL
Clouds: overcast cloud deck at 100 feet AGL
Weather: automated observation with no human augmentation;
there may or may not be significant weather present at this time

METAR text: K2G4 180500Z AUTO 26007G16KT OVC001 M01/M01 A2993 RMK AO1
Conditions at: K2G4 (GARRETT CO , MD, US) observed 0500 UTC 18 February 2018
Temperature: -1.0°C (30°F)
Dewpoint: -1.0°C (30°F) [RH = 100%]
Pressure (altimeter): 29.93 inches Hg (1013.6 mb)
Winds: from the W (260 degrees) at 8 MPH (7 knots; 3.6 m/s)
gusting to 18 MPH (16 knots; 8.3 m/s)
Visibility: missing
Ceiling: 100 feet AGL
Clouds: overcast cloud deck at 100 feet AGL
Weather: automated observation with no human augmentation;
there may or may not be significant weather present at this time

METAR text: K2G4 180440Z AUTO 27009G15KT OVC001 M01/M01 A2992 RMK AO1
Conditions at: K2G4 (GARRETT CO , MD, US) observed 0440 UTC 18 February 2018
Temperature: -1.0°C (30°F)
Dewpoint: -1.0°C (30°F) [RH = 100%]
Pressure (altimeter): 29.92 inches Hg (1013.3 mb)
Winds: from the W (270 degrees) at 10 MPH (9 knots; 4.7 m/s)
gusting to 17 MPH (15 knots; 7.8 m/s)
Visibility: missing
Ceiling: 100 feet AGL
Clouds: overcast cloud deck at 100 feet AGL
Weather: automated observation with no human augmentation;
there may or may not be significant weather present at this time

METAR text: K2G4 180420Z AUTO 27007KT OVC001 M01/M01 A2992 RMK AO1
Conditions at: K2G4 (GARRETT CO , MD, US) observed 0420 UTC 18 February 2018
Temperature: -1.0°C (30°F)
Dewpoint: -1.0°C (30°F) [RH = 100%]
Pressure (altimeter): 29.92 inches Hg (1013.3 mb)
Winds: from the W (270 degrees) at 8 MPH (7 knots; 3.6 m/s)
Visibility: missing
Ceiling: 100 feet AGL
Clouds: overcast cloud deck at 100 feet AGL
Weather: automated observation with no human augmentation;
there may or may not be significant weather present at this time

METAR text: K2G4 180400Z AUTO 26004G08KT OVC001 M01/M01 A2992 RMK AO1
Conditions at: K2G4 (GARRETT CO , MD, US) observed 0400 UTC 18 February 2018
Temperature: -1.0°C (30°F)
Dewpoint: -1.0°C (30°F) [RH = 100%]
Pressure (altimeter): 29.92 inches Hg (1013.3 mb)
Winds: from the W (260 degrees) at 5 MPH (4 knots; 2.1 m/s)
gusting to 9 MPH (8 knots; 4.2 m/s)
Visibility: missing
Ceiling: 100 feet AGL
Clouds: overcast cloud deck at 100 feet AGL
Weather: automated observation with no human augmentation;
there may or may not be significant weather present at this time

METAR text: K2G4 180340Z AUTO 27006G14KT OVC001 M01/M01 A2993 RMK AO1
Conditions at: K2G4 (GARRETT CO , MD, US) observed 0340 UTC 18 February 2018
Temperature: -1.0°C (30°F)
Dewpoint: -1.0°C (30°F) [RH = 100%]
Pressure (altimeter): 29.93 inches Hg (1013.6 mb)
Winds: from the W (270 degrees) at 7 MPH (6 knots; 3.1 m/s)
gusting to 16 MPH (14 knots; 7.3 m/s)
Visibility: missing
Ceiling: 100 feet AGL
Clouds: overcast cloud deck at 100 feet AGL
Weather: automated observation with no human augmentation;
there may or may not be significant weather present at this time

METAR text: K2G4 180320Z AUTO 28006KT OVC001 M01/M01 A2993 RMK AO1
Conditions at: K2G4 (GARRETT CO , MD, US) observed 0320 UTC 18 February 2018
Temperature: -1.0°C (30°F)
Dewpoint: -1.0°C (30°F) [RH = 100%]
Pressure (altimeter): 29.93 inches Hg (1013.6 mb)
Winds: from the W (280 degrees) at 7 MPH (6 knots; 3.1 m/s)
Visibility: missing
Ceiling: 100 feet AGL
Clouds: overcast cloud deck at 100 feet AGL
Weather: automated observation with no human augmentation;
there may or may not be significant weather present at this time

METAR text: K2G4 180300Z AUTO 28005KT OVC001 M01/M01 A2993 RMK AO1
Conditions at: K2G4 (GARRETT CO , MD, US) observed 0300 UTC 18 February 2018
Temperature: -1.0°C (30°F)
Dewpoint: -1.0°C (30°F) [RH = 100%]
Pressure (altimeter): 29.93 inches Hg (1013.6 mb)
Winds: from the W (280 degrees) at 6 MPH (5 knots; 2.6 m/s)
Visibility: missing
Ceiling: 100 feet AGL
Clouds: overcast cloud deck at 100 feet AGL
Weather: automated observation with no human augmentation;
there may or may not be significant weather present at this time

METAR text: K2G4 180240Z AUTO 28005KT OVC001 M01/M01 A2993 RMK AO1
Conditions at: K2G4 (GARRETT CO , MD, US) observed 0240 UTC 18 February 2018
Temperature: -1.0°C (30°F)
Dewpoint: -1.0°C (30°F) [RH = 100%]
Pressure (altimeter): 29.93 inches Hg (1013.6 mb)
Winds: from the W (280 degrees) at 6 MPH (5 knots; 2.6 m/s)
Visibility: missing
Ceiling: 100 feet AGL
Clouds: overcast cloud deck at 100 feet AGL
Weather: automated observation with no human augmentation;
there may or may not be significant weather present at this time

METAR text: K2G4 180220Z AUTO 29004KT OVC001 M01/M01 A2993 RMK AO1
Conditions at: K2G4 (GARRETT CO , MD, US) observed 0220 UTC 18 February 2018
Temperature: -1.0°C (30°F)
Dewpoint: -1.0°C (30°F) [RH = 100%]
Pressure (altimeter): 29.93 inches Hg (1013.6 mb)
Winds: from the WNW (290 degrees) at 5 MPH (4 knots; 2.1 m/s)
Visibility: missing
Ceiling: 100 feet AGL
Clouds: overcast cloud deck at 100 feet AGL
Weather: automated observation with no human augmentation;
there may or may not be significant weather present at this time

METAR text: K2G4 180200Z AUTO 26004KT OVC003 M01/M01 A2992 RMK AO1
Conditions at: K2G4 (GARRETT CO , MD, US) observed 0200 UTC 18 February 2018
Temperature: -1.0°C (30°F)
Dewpoint: -1.0°C (30°F) [RH = 100%]
Pressure (altimeter): 29.92 inches Hg (1013.3 mb)
Winds: from the W (260 degrees) at 5 MPH (4 knots; 2.1 m/s)
Visibility: missing
Ceiling: 300 feet AGL
Clouds: overcast cloud deck at 300 feet AGL
Weather: automated observation with no human augmentation;
there may or may not be significant weather present at this time

METAR text: K2G4 180140Z AUTO 22003KT OVC005 M02/M02 A2991 RMK AO1
Conditions at: K2G4 (GARRETT CO , MD, US) observed 0140 UTC 18 February 2018
Temperature: -2.0°C (28°F)
Dewpoint: -2.0°C (28°F) [RH = 100%]
Pressure (altimeter): 29.91 inches Hg (1013.0 mb)
Winds: from the SW (220 degrees) at 3 MPH (3 knots; 1.6 m/s)
Visibility: missing
Ceiling: 500 feet AGL
Clouds: overcast cloud deck at 500 feet AGL
Weather: automated observation with no human augmentation;
there may or may not be significant weather present at this time

METAR text: K2G4 180120Z AUTO 00000KT OVC007 M02/M02 A2991 RMK AO1
Conditions at: K2G4 (GARRETT CO , MD, US) observed 0120 UTC 18 February 2018
Temperature: -2.0°C (28°F)
Dewpoint: -2.0°C (28°F) [RH = 100%]
Pressure (altimeter): 29.91 inches Hg (1013.0 mb)
Winds: calm
Visibility: missing
Ceiling: 700 feet AGL
Clouds: overcast cloud deck at 700 feet AGL
Weather: automated observation with no human augmentation;
there may or may not be significant weather present at this time

METAR text: K2G4 180100Z AUTO 00000KT OVC005 M02/M02 A2991 RMK AO1
Conditions at: K2G4 (GARRETT CO , MD, US) observed 0100 UTC 18 February 2018
Temperature: -2.0°C (28°F)
Dewpoint: -2.0°C (28°F) [RH = 100%]
Pressure (altimeter): 29.91 inches Hg (1013.0 mb)
Winds: calm
Visibility: missing
Ceiling: 500 feet AGL
Clouds: overcast cloud deck at 500 feet AGL
Weather: automated observation with no human augmentation;
there may or may not be significant weather present at this time

METAR text: K2G4 180040Z AUTO 16004KT OVC003 M03/M03 A2992 RMK AO1
Conditions at: K2G4 (GARRETT CO , MD, US) observed 0040 UTC 18 February 2018
Temperature: -3.0°C (27°F)
Dewpoint: -3.0°C (27°F) [RH = 100%]
Pressure (altimeter): 29.92 inches Hg (1013.3 mb)
Winds: from the SSE (160 degrees) at 5 MPH (4 knots; 2.1 m/s)
Visibility: missing
Ceiling: 300 feet AGL
Clouds: overcast cloud deck at 300 feet AGL
Weather: automated observation with no human augmentation;
there may or may not be significant weather present at this time

METAR text: K2G4 180020Z AUTO 15008KT OVC003 M03/M03 A2990 RMK AO1
Conditions at: K2G4 (GARRETT CO , MD, US) observed 0020 UTC 18 February 2018
Temperature: -3.0°C (27°F)
Dewpoint: -3.0°C (27°F) [RH = 100%]
Pressure (altimeter): 29.90 inches Hg (1012.6 mb)
Winds: from the SSE (150 degrees) at 9 MPH (8 knots; 4.2 m/s)
Visibility: missing
Ceiling: 300 feet AGL
Clouds: overcast cloud deck at 300 feet AGL
Weather: automated observation with no human augmentation;
there may or may not be significant weather present at this time

METAR text: K2G4 180000Z AUTO 14009KT OVC003 M03/M03 A2989 RMK AO1
Conditions at: K2G4 (GARRETT CO , MD, US) observed 0000 UTC 18 February 2018
Temperature: -3.0°C (27°F)
Dewpoint: -3.0°C (27°F) [RH = 100%]
Pressure (altimeter): 29.89 inches Hg (1012.3 mb)
Winds: from the SE (140 degrees) at 10 MPH (9 knots; 4.7 m/s)
Visibility: missing
Ceiling: 300 feet AGL
Clouds: overcast cloud deck at 300 feet AGL
Weather: automated observation with no human augmentation;
there may or may not be significant weather present at this time

METAR text: K2G4 172340Z AUTO 14011KT OVC006 M03/M03 A2989 RMK AO1
Conditions at: K2G4 (GARRETT CO , MD, US) observed 2340 UTC 17 February 2018
Temperature: -3.0°C (27°F)
Dewpoint: -3.0°C (27°F) [RH = 100%]
Pressure (altimeter): 29.89 inches Hg (1012.3 mb)
Winds: from the SE (140 degrees) at 13 MPH (11 knots; 5.7 m/s)
Visibility: missing
Ceiling: 600 feet AGL
Clouds: overcast cloud deck at 600 feet AGL
Weather: automated observation with no human augmentation;
there may or may not be significant weather present at this time

METAR text: K2G4 172320Z AUTO 14008KT OVC006 M03/M03 A2993 RMK AO1
Conditions at: K2G4 (GARRETT CO , MD, US) observed 2320 UTC 17 February 2018
Temperature: -3.0°C (27°F)
Dewpoint: -3.0°C (27°F) [RH = 100%]
Pressure (altimeter): 29.93 inches Hg (1013.6 mb)
Winds: from the SE (140 degrees) at 9 MPH (8 knots; 4.2 m/s)
Visibility: missing
Ceiling: 600 feet AGL
Clouds: overcast cloud deck at 600 feet AGL
Weather: automated observation with no human augmentation;
there may or may not be significant weather present at this time

METAR text: K2G4 172300Z AUTO 14006KT OVC006 M03/M03 A2995 RMK AO1
Conditions at: K2G4 (GARRETT CO , MD, US) observed 2300 UTC 17 February 2018
Temperature: -3.0°C (27°F)
Dewpoint: -3.0°C (27°F) [RH = 100%]
Pressure (altimeter): 29.95 inches Hg (1014.3 mb)
Winds: from the SE (140 degrees) at 7 MPH (6 knots; 3.1 m/s)
Visibility: missing
Ceiling: 600 feet AGL
Clouds: overcast cloud deck at 600 feet AGL
Weather: automated observation with no human augmentation;
there may or may not be significant weather present at this time

METAR text: K2G4 172240Z AUTO 13006KT OVC006 M03/M03 A2995 RMK AO1
Conditions at: K2G4 (GARRETT CO , MD, US) observed 2240 UTC 17 February 2018
Temperature: -3.0°C (27°F)
Dewpoint: -3.0°C (27°F) [RH = 100%]
Pressure (altimeter): 29.95 inches Hg (1014.3 mb)
Winds: from the SE (130 degrees) at 7 MPH (6 knots; 3.1 m/s)
Visibility: missing
Ceiling: 600 feet AGL
Clouds: overcast cloud deck at 600 feet AGL
Weather: automated observation with no human augmentation;
there may or may not be significant weather present at this time

METAR text: K2G4 172220Z AUTO 13008KT OVC004 M03/M03 A2994 RMK AO1
Conditions at: K2G4 (GARRETT CO , MD, US) observed 2220 UTC 17 February 2018
Temperature: -3.0°C (27°F)
Dewpoint: -3.0°C (27°F) [RH = 100%]
Pressure (altimeter): 29.94 inches Hg (1014.0 mb)
Winds: from the SE (130 degrees) at 9 MPH (8 knots; 4.2 m/s)
Visibility: missing
Ceiling: 400 feet AGL
Clouds: overcast cloud deck at 400 feet AGL
Weather: automated observation with no human augmentation;
there may or may not be significant weather present at this time

METAR text: K2G4 172200Z AUTO 13010KT OVC004 M04/M04 A2994 RMK AO1
Conditions at: K2G4 (GARRETT CO , MD, US) observed 2200 UTC 17 February 2018
Temperature: -4.0°C (25°F)
Dewpoint: -4.0°C (25°F) [RH = 100%]
Pressure (altimeter): 29.94 inches Hg (1014.0 mb)
Winds: from the SE (130 degrees) at 12 MPH (10 knots; 5.2 m/s)
Visibility: missing
Ceiling: 400 feet AGL
Clouds: overcast cloud deck at 400 feet AGL
Weather: automated observation with no human augmentation;
there may or may not be significant weather present at this time

METAR text: K2G4 172140Z AUTO 13010KT OVC002 M04/M04 A2995 RMK AO1
Conditions at: K2G4 (GARRETT CO , MD, US) observed 2140 UTC 17 February 2018
Temperature: -4.0°C (25°F)
Dewpoint: -4.0°C (25°F) [RH = 100%]
Pressure (altimeter): 29.95 inches Hg (1014.3 mb)
Winds: from the SE (130 degrees) at 12 MPH (10 knots; 5.2 m/s)
Visibility: missing
Ceiling: 200 feet AGL
Clouds: overcast cloud deck at 200 feet AGL
Weather: automated observation with no human augmentation;
there may or may not be significant weather present at this time

METAR text: K2G4 172120Z AUTO 12010KT OVC002 M04/M04 A2995 RMK AO1
Conditions at: K2G4 (GARRETT CO , MD, US) observed 2120 UTC 17 February 2018
Temperature: -4.0°C (25°F)
Dewpoint: -4.0°C (25°F) [RH = 100%]
Pressure (altimeter): 29.95 inches Hg (1014.3 mb)
Winds: from the ESE (120 degrees) at 12 MPH (10 knots; 5.2 m/s)
Visibility: missing
Ceiling: 200 feet AGL
Clouds: overcast cloud deck at 200 feet AGL
Weather: automated observation with no human augmentation;
there may or may not be significant weather present at this time

METAR text: K2G4 172100Z AUTO 13010KT OVC002 M03/M03 A2996 RMK AO1
Conditions at: K2G4 (GARRETT CO , MD, US) observed 2100 UTC 17 February 2018
Temperature: -3.0°C (27°F)
Dewpoint: -3.0°C (27°F) [RH = 100%]
Pressure (altimeter): 29.96 inches Hg (1014.6 mb)
Winds: from the SE (130 degrees) at 12 MPH (10 knots; 5.2 m/s)
Visibility: missing
Ceiling: 200 feet AGL
Clouds: overcast cloud deck at 200 feet AGL
Weather: automated observation with no human augmentation;
there may or may not be significant weather present at this time

METAR text: K2G4 172040Z AUTO 13010KT OVC002 M03/M03 A2997 RMK AO1
Conditions at: K2G4 (GARRETT CO , MD, US) observed 2040 UTC 17 February 2018
Temperature: -3.0°C (27°F)
Dewpoint: -3.0°C (27°F) [RH = 100%]
Pressure (altimeter): 29.97 inches Hg (1015.0 mb)
Winds: from the SE (130 degrees) at 12 MPH (10 knots; 5.2 m/s)
Visibility: missing
Ceiling: 200 feet AGL
Clouds: overcast cloud deck at 200 feet AGL
Weather: automated observation with no human augmentation;
there may or may not be significant weather present at this time

METAR text: K2G4 172020Z AUTO 13010KT OVC004 M03/M03 A2997 RMK AO1
Conditions at: K2G4 (GARRETT CO , MD, US) observed 2020 UTC 17 February 2018
Temperature: -3.0°C (27°F)
Dewpoint: -3.0°C (27°F) [RH = 100%]
Pressure (altimeter): 29.97 inches Hg (1015.0 mb)
Winds: from the SE (130 degrees) at 12 MPH (10 knots; 5.2 m/s)
Visibility: missing
Ceiling: 400 feet AGL
Clouds: overcast cloud deck at 400 feet AGL
Weather: automated observation with no human augmentation;
there may or may not be significant weather present at this time

METAR text: K2G4 172000Z AUTO 13011G15KT BKN006 OVC012 M03/M03 A2997 RMK AO1
Conditions at: K2G4 (GARRETT CO , MD, US) observed 2000 UTC 17 February 2018
Temperature: -3.0°C (27°F)
Dewpoint: -3.0°C (27°F) [RH = 100%]
Pressure (altimeter): 29.97 inches Hg (1015.0 mb)
Winds: from the SE (130 degrees) at 13 MPH (11 knots; 5.7 m/s)
gusting to 17 MPH (15 knots; 7.8 m/s)
Visibility: missing
Ceiling: 600 feet AGL
Clouds: broken clouds at 600 feet AGL
overcast cloud deck at 1200 feet AGL
Weather: automated observation with no human augmentation;
there may or may not be significant weather present at this time

METAR text: K2G4 171940Z AUTO 14015KT BKN006 BKN012 OVC019 M03/M03 A2998 RMK AO1
Conditions at: K2G4 (GARRETT CO , MD, US) observed 1940 UTC 17 February 2018
Temperature: -3.0°C (27°F)
Dewpoint: -3.0°C (27°F) [RH = 100%]
Pressure (altimeter): 29.98 inches Hg (1015.3 mb)
Winds: from the SE (140 degrees) at 17 MPH (15 knots; 7.8 m/s)
Visibility: missing
Ceiling: 600 feet AGL
Clouds: broken clouds at 600 feet AGL
broken clouds at 1200 feet AGL
overcast cloud deck at 1900 feet AGL
Weather: automated observation with no human augmentation;
there may or may not be significant weather present at this time

METAR text: K2G4 171920Z AUTO 13012G19KT BKN006 M03/M04 A2997 RMK AO1
Conditions at: K2G4 (GARRETT CO , MD, US) observed 1920 UTC 17 February 2018
Temperature: -3.0°C (27°F)
Dewpoint: -4.0°C (25°F) [RH = 93%]
Pressure (altimeter): 29.97 inches Hg (1015.0 mb)
Winds: from the SE (130 degrees) at 14 MPH (12 knots; 6.2 m/s)
gusting to 22 MPH (19 knots; 9.9 m/s)
Visibility: missing
Ceiling: 600 feet AGL
Clouds: broken clouds at 600 feet AGL
Weather: automated observation with no human augmentation;
there may or may not be significant weather present at this time

METAR text: K2G4 171900Z AUTO 14017G22KT M03/M04 A3001 RMK AO1 SKY OBSCURED
Conditions at: K2G4 (GARRETT CO , MD, US) observed 1900 UTC 17 February 2018
Temperature: -3.0°C (27°F)
Dewpoint: -4.0°C (25°F) [RH = 93%]
Pressure (altimeter): 30.01 inches Hg (1016.3 mb)
Winds: from the SE (140 degrees) at 20 MPH (17 knots; 8.8 m/s)
gusting to 25 MPH (22 knots; 11.4 m/s)
Visibility: missing
Ceiling: unknown
Clouds: missing
Weather: automated observation with no human augmentation;
there may or may not be significant weather present at this time

METAR text: K2G4 171840Z AUTO 14013G17KT M03/M04 A3005 RMK AO1
Conditions at: K2G4 (GARRETT CO , MD, US) observed 1840 UTC 17 February 2018
Temperature: -3.0°C (27°F)
Dewpoint: -4.0°C (25°F) [RH = 93%]
Pressure (altimeter): 30.05 inches Hg (1017.7 mb)
Winds: from the SE (140 degrees) at 15 MPH (13 knots; 6.8 m/s)
gusting to 20 MPH (17 knots; 8.8 m/s)
Visibility: missing
Ceiling: unknown
Clouds: missing
Weather: automated observation with no human augmentation;
there may or may not be significant weather present at this time

METAR text: K2G4 171820Z AUTO 14010KT M03/M04 A3007 RMK AO1
Conditions at: K2G4 (GARRETT CO , MD, US) observed 1820 UTC 17 February 2018
Temperature: -3.0°C (27°F)
Dewpoint: -4.0°C (25°F) [RH = 93%]
Pressure (altimeter): 30.07 inches Hg (1018.4 mb)
Winds: from the SE (140 degrees) at 12 MPH (10 knots; 5.2 m/s)
Visibility: missing
Ceiling: unknown
Clouds: missing
Weather: automated observation with no human augmentation;
there may or may not be significant weather present at this time